Time;durP1;ratioP1;P1;durP2;ratioP2;P2;SDS_P1;SDS_P2;PMS_P1;PMS_P2;Temp;Humidity;BMP_temperature;BMP_pressure;BME280_temperature;BME280_humidity;BME280_pressure;Samples;Min_cycle;Max_cycle;Signal;HPM_P1;HPM_P2
2022/04/22 00:00:57;;;;;;;;;;;;;;;17.95;61.72;96909.69;2088309;28;19921;-49
2022/04/22 00:01:59;;;;;;;;;;;;;;;17.94;61.62;96897.34;2087413;28;20002;-54
2022/04/22 00:02:59;;;;;;;;;;;;;;;17.95;61.68;96898.16;2085325;28;19931;-50
2022/04/22 00:04:03;;;;;;;;;;;;;;;17.97;61.56;96896.03;2084073;28;19954;-53
2022/04/22 00:05:04;;;;;;;;;;;;;;;17.95;61.67;96893.59;2087711;28;20023;-51
2022/04/22 00:06:05;;;;;;;;;;;;;;;17.92;61.49;96894.09;2088508;28;19955;-52
2022/04/22 00:07:06;;;;;;;;;;;;;;;17.93;61.72;96887.66;2086382;28;19931;-51
2022/04/22 00:08:07;;;;;;;;;;;;;;;17.93;61.51;96886.84;2084073;28;20014;-51
2022/04/22 00:09:08;;;;;;;;;;;;;;;17.94;61.62;96886.63;2086689;28;19985;-46
2022/04/22 00:10:10;;;;;;;;;;;;;;;17.93;61.51;96881.50;2090038;28;20514;-53
2022/04/22 00:11:29;;;;;;;;;;;;;;;17.93;61.53;96884.19;2087922;28;19928;-50
2022/04/22 00:12:31;;;;;;;;;;;;;;;17.92;61.46;96880.69;2086736;28;21675;-49
2022/04/22 00:13:31;;;;;;;;;;;;;;;17.93;61.61;96884.97;2086506;28;19928;-49
2022/04/22 00:14:33;;;;;;;;;;;;;;;17.92;61.65;96885.25;2088195;28;19928;-49
2022/04/22 00:15:33;;;;;;;;;;;;;;;17.90;61.60;96881.97;2085678;28;20946;-53
2022/04/22 00:16:35;;;;;;;;;;;;;;;17.91;61.55;96881.72;2087339;28;19929;-53
2022/04/22 00:17:36;;;;;;;;;;;;;;;17.90;61.51;96880.09;2085006;28;20040;-49
2022/04/22 00:18:37;;;;;;;;;;;;;;;17.91;61.57;96878.22;2087874;28;19924;-46
2022/04/22 00:19:39;;;;;;;;;;;;;;;17.91;61.47;96875.53;2085068;28;19933;-48
2022/04/22 00:20:41;;;;;;;;;;;;;;;17.92;61.76;96866.47;2086376;28;20500;-52
2022/04/22 00:21:42;;;;;;;;;;;;;;;17.91;61.44;96862.94;2085367;28;19920;-52
2022/04/22 00:22:44;;;;;;;;;;;;;;;17.92;61.38;96864.59;2087224;28;19929;-53
2022/04/22 00:23:45;;;;;;;;;;;;;;;17.92;61.35;96866.47;2088063;28;19924;-51
2022/04/22 00:24:46;;;;;;;;;;;;;;;17.91;61.45;96864.81;2088366;28;19924;-53
2022/04/22 00:25:47;;;;;;;;;;;;;;;17.91;61.45;96862.13;2086458;28;19925;-47
2022/04/22 00:26:49;;;;;;;;;;;;;;;17.90;61.67;96869.38;2088538;28;19994;-53
2022/04/22 00:27:49;;;;;;;;;;;;;;;17.90;61.59;96864.00;2086867;28;19936;-51
2022/04/22 00:28:51;;;;;;;;;;;;;;;17.89;61.58;96862.41;2089539;28;20764;-49
2022/04/22 00:29:52;;;;;;;;;;;;;;;17.89;61.56;96862.41;2086479;28;19964;-51
2022/04/22 00:30:53;;;;;;;;;;;;;;;17.89;61.59;96870.44;2087902;28;19920;-49
2022/04/22 00:31:54;;;;;;;;;;;;;;;17.89;61.43;96870.44;2087186;28;19936;-54
2022/04/22 00:32:55;;;;;;;;;;;;;;;17.89;61.58;96862.41;2086970;28;19935;-51
2022/04/22 00:33:56;;;;;;;;;;;;;;;17.88;61.58;96863.44;2083456;28;20632;-53
2022/04/22 00:34:59;;;;;;;;;;;;;;;17.88;61.63;96862.63;2088586;28;19932;-50
2022/04/22 00:36:00;;;;;;;;;;;;;;;17.88;61.50;96862.63;2086200;28;19927;-52
2022/04/22 00:37:01;;;;;;;;;;;;;;;17.88;61.39;96863.44;2086348;28;19925;-47
2022/04/22 00:38:03;;;;;;;;;;;;;;;17.87;61.62;96859.13;2073285;28;20637;-51
2022/04/22 00:39:03;;;;;;;;;;;;;;;17.87;61.62;96867.19;2081520;28;19921;-51
2022/04/22 00:40:05;;;;;;;;;;;;;;;17.88;61.51;96860.75;2083255;28;19935;-48
2022/04/22 00:41:06;;;;;;;;;;;;;;;17.86;61.61;96862.88;2086641;28;19935;-48
2022/04/22 00:42:09;;;;;;;;;;;;;;;17.85;61.46;96863.91;2087803;28;19924;-54
2022/04/22 00:43:16;;;;;;;;;;;;;;;17.88;61.34;96868.00;2085866;28;20093;-50
2022/04/22 00:44:17;;;;;;;;;;;;;;;17.86;61.36;96870.94;2084048;28;20597;-47
2022/04/22 00:45:19;;;;;;;;;;;;;;;17.85;61.39;96866.59;2087472;28;19928;-54
2022/04/22 00:46:20;;;;;;;;;;;;;;;17.85;61.42;96866.59;2086023;28;19959;-49
2022/04/22 00:47:21;;;;;;;;;;;;;;;17.85;61.38;96867.41;2086687;28;19927;-51
2022/04/22 00:48:22;;;;;;;;;;;;;;;17.85;61.48;96866.59;2081432;28;19935;-46
2022/04/22 00:49:24;;;;;;;;;;;;;;;17.85;61.32;96862.03;2087284;28;19924;-49
2022/04/22 00:50:26;;;;;;;;;;;;;;;17.85;61.45;96866.59;2084421;28;19920;-49
2022/04/22 00:51:27;;;;;;;;;;;;;;;17.84;61.44;96862.31;2082637;28;20590;-46
2022/04/22 00:52:28;;;;;;;;;;;;;;;17.83;61.40;96868.72;2087779;28;19920;-52
2022/04/22 00:53:29;;;;;;;;;;;;;;;17.84;61.21;96862.31;2088033;28;19931;-46
2022/04/22 00:54:30;;;;;;;;;;;;;;;17.84;61.39;96860.44;2085504;28;19925;-49
2022/04/22 00:55:32;;;;;;;;;;;;;;;17.84;61.27;96855.06;2086830;28;19927;-46
2022/04/22 00:56:33;;;;;;;;;;;;;;;17.84;61.32;96859.63;2082057;28;19929;-51
2022/04/22 00:57:34;;;;;;;;;;;;;;;17.83;61.30;96856.13;2081686;28;21721;-50
2022/04/22 00:58:36;;;;;;;;;;;;;;;17.84;61.47;96855.06;2084937;28;20540;-47
2022/04/22 00:59:37;;;;;;;;;;;;;;;17.85;61.47;96863.91;2085805;28;19925;-51
2022/04/22 01:00:39;;;;;;;;;;;;;;;17.85;61.42;96869.28;2077803;28;20143;-55
2022/04/22 01:01:40;;;;;;;;;;;;;;;17.85;61.21;96862.03;2074745;28;19924;-52
2022/04/22 01:02:41;;;;;;;;;;;;;;;17.84;61.31;96854.25;2080561;28;19924;-54
2022/04/22 01:09:47;;;;;;;;;;;;;;;17.83;61.46;96856.13;2088795;28;19924;-49
2022/04/22 01:10:33;;;;;;;;;;;;;;;17.83;61.28;96860.69;2081302;28;20019;-52
2022/04/22 01:11:35;;;;;;;;;;;;;;;17.81;61.43;96866.28;2085899;28;20284;-49
2022/04/22 01:12:37;;;;;;;;;;;;;;;17.81;61.22;96854.75;2088343;28;19974;-53
2022/04/22 01:13:38;;;;;;;;;;;;;;;17.80;61.27;96859.31;2087733;28;20769;-48
2022/04/22 01:14:39;;;;;;;;;;;;;;;17.82;61.30;96869.78;2087557;28;19921;-51
2022/04/22 01:15:41;;;;;;;;;;;;;;;17.81;61.26;96865.47;2087320;28;19963;-51
2022/04/22 01:16:41;;;;;;;;;;;;;;;17.79;61.24;96856.84;2084779;28;19921;-47
2022/04/22 01:17:43;;;;;;;;;;;;;;;17.81;61.49;96870.84;2085638;28;19928;-46
2022/04/22 01:18:44;;;;;;;;;;;;;;;17.81;61.26;96860.09;2087128;28;19929;-50
2022/04/22 01:19:45;;;;;;;;;;;;;;;17.81;61.19;96858.22;2086233;28;20384;-46
2022/04/22 01:20:46;;;;;;;;;;;;;;;17.81;61.23;96860.09;2079017;28;19924;-48
2022/04/22 01:21:49;;;;;;;;;;;;;;;17.79;61.22;96860.34;2084146;28;19924;-47
2022/04/22 01:22:49;;;;;;;;;;;;;;;17.79;61.32;96862.22;2086225;28;19985;-47
2022/04/22 01:23:51;;;;;;;;;;;;;;;17.78;61.41;96861.41;2085787;28;19920;-47
2022/04/22 01:24:53;;;;;;;;;;;;;;;17.79;61.31;96863.00;2087229;28;20650;-47
2022/04/22 01:25:56;;;;;;;;;;;;;;;17.79;61.26;96864.88;2085446;28;19920;-47
2022/04/22 01:26:57;;;;;;;;;;;;;;;17.78;61.47;96860.56;2087544;28;19932;-46
2022/04/22 01:28:00;;;;;;;;;;;;;;;17.78;61.49;96855.19;2084635;28;19974;-47
2022/04/22 01:29:01;;;;;;;;;;;;;;;17.77;61.41;96856.22;2087859;28;19924;-47
2022/04/22 01:30:06;;;;;;;;;;;;;;;17.77;61.34;96853.56;2083396;28;19935;-47
2022/04/22 01:31:06;;;;;;;;;;;;;;;17.78;61.32;96860.56;2088171;28;19956;-49
2022/04/22 01:32:08;;;;;;;;;;;;;;;17.79;61.32;96862.22;2084363;28;19931;-49
2022/04/22 01:33:09;;;;;;;;;;;;;;;17.79;61.20;96856.84;2083237;28;19920;-48
2022/04/22 01:34:10;;;;;;;;;;;;;;;17.74;61.47;96860.22;2084276;28;19979;-48
2022/04/22 01:35:12;;;;;;;;;;;;;;;17.76;61.30;96862.66;2086750;28;19931;-49
2022/04/22 01:36:12;;;;;;;;;;;;;;;17.77;61.31;96861.59;2082210;28;19947;-46
2022/04/22 01:37:15;;;;;;;;;;;;;;;17.76;61.22;96860.78;2087347;28;20054;-49
2022/04/22 01:38:16;;;;;;;;;;;;;;;17.76;61.27;96868.84;2087889;28;20004;-48
2022/04/22 01:39:17;;;;;;;;;;;;;;;17.77;61.25;96866.97;2085709;28;19939;-48
2022/04/22 01:40:18;;;;;;;;;;;;;;;17.77;61.24;96866.97;2085612;28;19932;-49
2022/04/22 01:41:21;;;;;;;;;;;;;;;17.74;61.19;96864.75;2086047;28;19928;-47
2022/04/22 01:42:21;;;;;;;;;;;;;;;17.77;61.26;96866.97;2083285;28;20359;-49
2022/04/22 01:43:23;;;;;;;;;;;;;;;17.77;61.38;96864.28;2087030;28;19931;-48
2022/04/22 01:44:25;;;;;;;;;;;;;;;17.77;61.24;96864.28;2085349;28;19924;-48
2022/04/22 01:45:27;;;;;;;;;;;;;;;17.76;61.31;96859.97;2088851;28;19982;-47
2022/04/22 01:46:27;;;;;;;;;;;;;;;17.74;61.48;96854.03;2085130;28;19924;-47
2022/04/22 01:47:29;;;;;;;;;;;;;;;17.74;61.20;96859.41;2084567;28;19938;-47
2022/04/22 01:48:30;;;;;;;;;;;;;;;17.74;61.40;96854.84;2085981;28;19931;-47
2022/04/22 01:49:32;;;;;;;;;;;;;;;17.74;61.24;96857.53;2082889;28;19935;-48
2022/04/22 01:50:34;;;;;;;;;;;;;;;17.74;61.15;96848.69;2086952;28;20482;-49
2022/04/22 01:51:34;;;;;;;;;;;;;;;17.74;61.29;96846.00;2086070;28;19927;-49
2022/04/22 01:52:39;;;;;;;;;;;;;;;17.75;61.31;96851.13;2085744;28;19931;-50
2022/04/22 01:53:39;;;;;;;;;;;;;;;17.74;61.40;96851.34;2088190;28;19963;-47
2022/04/22 01:54:41;;;;;;;;;;;;;;;17.74;61.39;96852.16;2085239;28;19924;-47
2022/04/22 01:55:42;;;;;;;;;;;;;;;17.72;61.48;96851.63;2086348;28;19924;-47
2022/04/22 01:56:43;;;;;;;;;;;;;;;17.73;61.35;96852.41;2086557;28;19967;-48
2022/04/22 01:57:44;;;;;;;;;;;;;;;17.74;61.17;96848.69;2086451;28;20370;-50
2022/04/22 01:58:45;;;;;;;;;;;;;;;17.72;61.23;96848.09;2085018;28;19924;-48
2022/04/22 01:59:46;;;;;;;;;;;;;;;17.73;61.31;96853.22;2085755;28;19920;-48
2022/04/22 02:00:48;;;;;;;;;;;;;;;17.72;61.28;96845.41;2087735;28;20628;-48
2022/04/22 02:01:49;;;;;;;;;;;;;;;17.71;61.42;96839.25;2085639;28;19955;-48
2022/04/22 02:02:50;;;;;;;;;;;;;;;17.72;61.27;96840.88;2083879;28;19927;-50
2022/04/22 02:03:51;;;;;;;;;;;;;;;17.71;61.23;96841.13;2087096;28;19920;-50
2022/04/22 02:04:53;;;;;;;;;;;;;;;17.72;61.39;96837.38;2085978;28;19934;-48
2022/04/22 02:05:53;;;;;;;;;;;;;;;17.73;61.26;96833.66;2087839;28;20354;-47
2022/04/22 02:06:55;;;;;;;;;;;;;;;17.73;61.39;96844.38;2083695;28;19982;-45
2022/04/22 02:07:57;;;;;;;;;;;;;;;17.72;61.37;96840.88;2087649;28;20533;-48
2022/04/22 02:08:58;;;;;;;;;;;;;;;17.73;61.41;96841.69;2086782;28;19920;-48
2022/04/22 02:09:58;;;;;;;;;;;;;;;17.72;61.53;96840.06;2088591;28;20371;-46
2022/04/22 02:11:00;;;;;;;;;;;;;;;17.72;61.40;96840.88;2086113;28;19973;-47
2022/04/22 02:12:01;;;;;;;;;;;;;;;17.72;61.40;96840.06;2087272;28;19929;-48
2022/04/22 02:13:03;;;;;;;;;;;;;;;17.73;61.30;96841.69;2085568;28;19947;-48
2022/04/22 02:14:03;;;;;;;;;;;;;;;17.72;61.44;96843.56;2087972;28;19924;-48
2022/04/22 02:15:05;;;;;;;;;;;;;;;17.71;61.39;96841.91;2078801;28;19927;-46
2022/04/22 02:16:07;;;;;;;;;;;;;;;17.70;61.41;96842.19;2081927;28;19927;-46
2022/04/22 02:17:09;;;;;;;;;;;;;;;17.69;61.28;96845.91;2083257;28;20290;-47
2022/04/22 02:18:09;;;;;;;;;;;;;;;17.70;61.49;96852.91;2083338;28;19924;-45
2022/04/22 02:19:11;;;;;;;;;;;;;;;17.70;61.35;96850.22;2087002;28;19934;-48
2022/04/22 02:20:12;;;;;;;;;;;;;;;17.71;61.33;96855.31;2085142;28;19927;-47
2022/04/22 02:21:13;;;;;;;;;;;;;;;17.70;61.09;96848.34;2084702;28;19928;-46
2022/04/22 02:22:14;;;;;;;;;;;;;;;17.70;61.36;96842.19;2083793;28;19935;-48
2022/04/22 02:23:17;;;;;;;;;;;;;;;17.70;61.38;96842.19;2083167;28;20289;-47
2022/04/22 02:24:18;;;;;;;;;;;;;;;17.69;61.18;96843.22;2084765;28;19973;-47
2022/04/22 02:25:19;;;;;;;;;;;;;;;17.70;61.29;96839.50;2086329;28;19925;-47
2022/04/22 02:26:20;;;;;;;;;;;;;;;17.70;61.39;96831.47;2085230;28;19928;-46
2022/04/22 02:28:39;;;;;;;;;;;;;;;17.69;61.34;96825.28;2084847;28;20504;-50
2022/04/22 02:29:40;;;;;;;;;;;;;;;17.69;61.11;96825.28;2087305;28;19959;-45
2022/04/22 02:30:42;;;;;;;;;;;;;;;17.68;61.13;96826.31;2082832;28;20893;-47
2022/04/22 02:31:43;;;;;;;;;;;;;;;17.69;61.42;96835.19;2081590;28;20445;-47
2022/04/22 02:32:46;;;;;;;;;;;;;;;17.68;61.34;96834.38;2085922;28;19967;-49
2022/04/22 02:33:47;;;;;;;;;;;;;;;17.68;61.11;96830.88;2085446;28;20324;-46
2022/04/22 02:34:48;;;;;;;;;;;;;;;17.66;61.47;96825.75;2084165;28;20010;-46
2022/04/22 02:35:49;;;;;;;;;;;;;;;17.65;61.17;96818.75;2087831;28;19924;-48
2022/04/22 02:36:50;;;;;;;;;;;;;;;17.64;61.18;96817.97;2084864;28;19970;-51
2022/04/22 02:37:52;;;;;;;;;;;;;;;17.66;61.43;96817.69;2087482;28;19936;-48
2022/04/22 02:38:55;;;;;;;;;;;;;;;17.66;61.39;96815.00;2083098;28;19924;-49
2022/04/22 02:39:56;;;;;;;;;;;;;;;17.65;61.43;96818.75;2087314;28;19920;-48
2022/04/22 02:46:13;;;;;;;;;;;;;;;17.67;61.28;96818.53;2078547;28;20503;-48
2022/04/22 02:47:14;;;;;;;;;;;;;;;17.65;61.17;96810.72;2082814;28;19936;-47
2022/04/22 02:48:15;;;;;;;;;;;;;;;17.64;61.25;96817.16;2084069;28;19935;-46
2022/04/22 02:49:16;;;;;;;;;;;;;;;17.65;61.28;96816.88;2082285;28;19924;-48
2022/04/22 02:50:17;;;;;;;;;;;;;;;17.66;61.25;96825.75;2087223;28;19925;-47
2022/04/22 02:51:18;;;;;;;;;;;;;;;17.65;61.36;96819.56;2086212;28;19931;-48
2022/04/22 02:52:20;;;;;;;;;;;;;;;17.65;61.29;96829.50;2085029;28;20309;-48
2022/04/22 02:53:22;;;;;;;;;;;;;;;17.65;61.13;96819.56;2085335;28;19927;-47
2022/04/22 02:54:25;;;;;;;;;;;;;;;17.64;61.24;96828.69;2082160;28;19936;-49
2022/04/22 02:55:25;;;;;;;;;;;;;;;17.64;61.25;96817.97;2085587;28;21257;-49
2022/04/22 02:56:27;;;;;;;;;;;;;;;17.65;61.32;96816.09;2084544;28;19927;-47
2022/04/22 02:57:27;;;;;;;;;;;;;;;17.64;61.11;96817.97;2085482;28;19928;-49
2022/04/22 02:58:29;;;;;;;;;;;;;;;17.65;61.28;96814.22;2085073;28;19929;-47
2022/04/22 02:59:29;;;;;;;;;;;;;;;17.64;61.13;96817.16;2084582;28;19935;-50
2022/04/22 03:00:31;;;;;;;;;;;;;;;17.65;61.14;96816.09;2084321;28;19925;-48
2022/04/22 03:01:33;;;;;;;;;;;;;;;17.64;61.23;96817.16;2084249;28;20049;-48
2022/04/22 03:02:36;;;;;;;;;;;;;;;17.64;61.17;96814.47;2085163;28;20042;-47
2022/04/22 03:03:37;;;;;;;;;;;;;;;17.64;61.15;96812.59;2085887;28;19924;-50
2022/04/22 03:04:38;;;;;;;;;;;;;;;17.64;61.17;96811.78;2083304;28;19925;-48
2022/04/22 03:05:39;;;;;;;;;;;;;;;17.65;61.11;96808.03;2083907;28;20001;-48
2022/04/22 03:06:40;;;;;;;;;;;;;;;17.63;61.16;96813.66;2085915;28;19978;-47
2022/04/22 03:07:41;;;;;;;;;;;;;;;17.62;61.09;96809.34;2081627;28;19963;-47
2022/04/22 03:08:42;;;;;;;;;;;;;;;17.62;61.05;96809.34;2086130;28;19927;-49
2022/04/22 03:09:45;;;;;;;;;;;;;;;17.62;61.09;96803.97;2076534;28;19964;-49
2022/04/22 03:10:48;;;;;;;;;;;;;;;17.63;61.22;96794.06;2081890;28;19921;-47
2022/04/22 03:11:49;;;;;;;;;;;;;;;17.60;61.16;96792.66;2084224;28;19936;-46
2022/04/22 03:12:50;;;;;;;;;;;;;;;17.62;61.35;96789.75;2086129;28;19925;-50
2022/04/22 03:13:51;;;;;;;;;;;;;;;17.61;61.16;96796.19;2085829;28;19956;-45
2022/04/22 03:14:52;;;;;;;;;;;;;;;17.61;61.28;96786.28;2086867;28;20497;-48
2022/04/22 03:15:53;;;;;;;;;;;;;;;17.58;61.18;96777.91;2078778;28;19931;-47
2022/04/22 03:16:55;;;;;;;;;;;;;;;17.57;61.40;96782.44;2084538;28;20424;-47
2022/04/22 03:17:55;;;;;;;;;;;;;;;17.58;61.33;96775.22;2083991;28;20612;-48
2022/04/22 03:18:57;;;;;;;;;;;;;;;17.58;61.12;96762.63;2086014;28;20036;-50
2022/04/22 03:19:57;;;;;;;;;;;;;;;17.58;61.31;96762.63;2086110;28;20584;-50
2022/04/22 03:20:59;;;;;;;;;;;;;;;17.58;61.24;96770.69;2085517;28;19925;-46
2022/04/22 03:21:59;;;;;;;;;;;;;;;17.58;61.28;96768.00;2085327;28;20402;-49
2022/04/22 03:23:01;;;;;;;;;;;;;;;17.59;61.31;96771.47;2085524;28;20032;-46
2022/04/22 03:24:02;;;;;;;;;;;;;;;17.59;61.11;96771.47;2084269;28;19929;-48
2022/04/22 03:25:05;;;;;;;;;;;;;;;17.59;61.22;96774.97;2086986;28;19932;-49
2022/04/22 03:26:06;;;;;;;;;;;;;;;17.60;61.13;96779.25;2084721;28;19924;-47
2022/04/22 03:27:07;;;;;;;;;;;;;;;17.59;61.24;96782.22;2083367;28;20469;-48
2022/04/22 03:28:08;;;;;;;;;;;;;;;17.58;61.29;96785.94;2085532;28;20004;-46
2022/04/22 03:29:09;;;;;;;;;;;;;;;17.59;61.12;96785.69;2085237;28;19940;-46
2022/04/22 03:30:10;;;;;;;;;;;;;;;17.60;61.25;96783.81;2086584;28;19920;-48
2022/04/22 03:31:12;;;;;;;;;;;;;;;17.57;61.22;96782.44;2073371;28;21823;-48
2022/04/22 03:32:12;;;;;;;;;;;;;;;17.57;61.29;96793.16;2083306;28;19924;-49
2022/04/22 03:33:14;;;;;;;;;;;;;;;17.58;61.15;96789.44;2086981;28;19935;-48
2022/04/22 03:34:15;;;;;;;;;;;;;;;17.56;61.11;96788.84;2088127;28;20460;-47
2022/04/22 03:35:16;;;;;;;;;;;;;;;17.58;61.14;96797.47;2087295;28;20011;-48
2022/04/22 03:36:18;;;;;;;;;;;;;;;17.58;61.25;96791.31;2085698;28;19939;-51
2022/04/22 03:37:18;;;;;;;;;;;;;;;17.57;61.11;96790.47;2085181;28;19925;-47
2022/04/22 03:38:20;;;;;;;;;;;;;;;17.58;61.19;96792.13;2086140;28;20866;-48
2022/04/22 03:39:21;;;;;;;;;;;;;;;17.58;61.29;96794.81;2086286;28;19930;-49
2022/04/22 03:40:24;;;;;;;;;;;;;;;17.58;61.15;96797.47;2085635;28;20401;-49
2022/04/22 03:41:24;;;;;;;;;;;;;;;17.55;61.21;96787.25;2087826;28;20055;-47
2022/04/22 03:42:28;;;;;;;;;;;;;;;17.55;61.12;96784.56;2085980;28;19928;-47
2022/04/22 03:43:29;;;;;;;;;;;;;;;17.55;61.19;96795.28;2088232;28;20616;-49
2022/04/22 03:44:30;;;;;;;;;;;;;;;17.57;61.10;96793.16;2088561;28;19935;-49
2022/04/22 03:45:30;;;;;;;;;;;;;;;17.56;61.09;96790.72;2082409;28;19969;-49
2022/04/22 03:46:32;;;;;;;;;;;;;;;17.54;61.11;96785.59;2086340;28;19932;-49
2022/04/22 03:47:33;;;;;;;;;;;;;;;17.57;61.07;96789.66;2084836;28;19935;-48
2022/04/22 03:48:34;;;;;;;;;;;;;;;17.57;61.07;96787.78;2084420;28;20042;-49
2022/04/22 03:49:35;;;;;;;;;;;;;;;17.58;60.97;96792.13;2082692;28;19925;-46
2022/04/22 03:50:37;;;;;;;;;;;;;;;17.57;61.08;96785.13;2086947;28;20019;-49
2022/04/22 03:51:37;;;;;;;;;;;;;;;17.54;61.31;96785.59;2087210;28;19966;-47
2022/04/22 03:52:39;;;;;;;;;;;;;;;17.55;61.00;96795.28;2087753;28;20520;-48
2022/04/22 03:53:41;;;;;;;;;;;;;;;17.55;61.17;96789.94;2085571;28;19931;-49
2022/04/22 03:54:42;;;;;;;;;;;;;;;17.55;61.16;96787.25;2088185;28;19932;-50
2022/04/22 03:55:45;;;;;;;;;;;;;;;17.53;61.11;96794.72;2088047;28;20538;-49
2022/04/22 03:58:11;;;;;;;;;;;;;;;17.51;61.22;96790.63;2088037;28;20282;-47
2022/04/22 03:59:12;;;;;;;;;;;;;;;17.49;61.15;96790.88;2081771;28;20946;-47
2022/04/22 04:00:14;;;;;;;;;;;;;;;17.49;61.23;96798.09;2082405;28;19964;-48
2022/04/22 04:01:14;;;;;;;;;;;;;;;17.50;61.19;96802.44;2086977;28;19928;-45
2022/04/22 04:02:16;;;;;;;;;;;;;;;17.50;61.48;96792.50;2086116;28;19920;-50
2022/04/22 04:03:17;;;;;;;;;;;;;;;17.51;61.25;96796.81;2086689;28;19986;-47
2022/04/22 04:04:19;;;;;;;;;;;;;;;17.52;61.09;96803.78;2087920;28;19931;-48
2022/04/22 04:05:19;;;;;;;;;;;;;;;17.52;61.10;96808.34;2087482;28;20384;-47
2022/04/22 04:06:22;;;;;;;;;;;;;;;17.54;61.14;96807.03;2087759;28;19924;-49
2022/04/22 04:07:23;;;;;;;;;;;;;;;17.53;61.19;96805.44;2083743;28;19928;-46
2022/04/22 04:08:24;;;;;;;;;;;;;;;17.53;61.11;96805.44;2084446;28;20417;-55
2022/04/22 04:16:19;;;;;;;;;;;;;;;17.50;61.10;96810.47;2087898;28;20555;-47
2022/04/22 04:17:20;;;;;;;;;;;;;;;17.49;61.20;96809.63;2087340;28;20047;-47
2022/04/22 04:18:21;;;;;;;;;;;;;;;17.50;61.36;96811.28;2085579;28;19935;-47
2022/04/22 04:23:35;;;;;;;;;;;;;;;17.48;61.23;96810.69;2062903;28;19925;-46
2022/04/22 04:24:36;;;;;;;;;;;;;;;17.49;61.17;96809.63;2062339;28;19945;-49
2022/04/22 04:25:39;;;;;;;;;;;;;;;17.48;61.08;96810.69;2063568;28;20627;-46
2022/04/22 04:26:42;;;;;;;;;;;;;;;17.49;61.13;96812.31;2061200;28;20004;-47
2022/04/22 04:27:45;;;;;;;;;;;;;;;17.47;61.15;96810.91;2066782;28;20127;-47
2022/04/22 04:28:48;;;;;;;;;;;;;;;17.46;61.24;96812.78;2083578;28;19932;-49
2022/04/22 04:29:49;;;;;;;;;;;;;;;17.47;61.23;96806.41;2089068;28;19981;-48
2022/04/22 04:30:50;;;;;;;;;;;;;;;17.49;61.24;96804.28;2087021;28;19928;-50
2022/04/22 04:31:51;;;;;;;;;;;;;;;17.47;61.21;96809.06;2087904;28;19924;-49
2022/04/22 04:32:52;;;;;;;;;;;;;;;17.49;61.17;96808.81;2089244;28;19972;-48
2022/04/22 04:33:54;;;;;;;;;;;;;;;17.50;61.00;96813.16;2087317;28;19920;-47
2022/04/22 04:34:54;;;;;;;;;;;;;;;17.50;61.23;96807.78;2085328;28;19924;-48
2022/04/22 04:35:56;;;;;;;;;;;;;;;17.49;61.00;96809.63;2088767;28;20495;-49
2022/04/22 04:36:57;;;;;;;;;;;;;;;17.50;61.11;96816.63;2086886;28;20457;-50
2022/04/22 04:37:58;;;;;;;;;;;;;;;17.48;60.99;96816.06;2088883;28;19931;-50
2022/04/22 04:39:00;;;;;;;;;;;;;;;17.48;61.12;96816.06;2087459;28;20352;-48
2022/04/22 04:40:00;;;;;;;;;;;;;;;17.49;61.11;96824.91;2086832;28;19929;-50
2022/04/22 04:41:02;;;;;;;;;;;;;;;17.47;61.23;96816.28;2088802;28;19925;-47
2022/04/22 04:42:04;;;;;;;;;;;;;;;17.49;61.02;96824.91;2085236;28;19935;-48
2022/04/22 04:43:06;;;;;;;;;;;;;;;17.49;61.15;96824.91;2086170;28;19978;-48
2022/04/22 04:44:06;;;;;;;;;;;;;;;17.48;61.07;96824.09;2087342;28;19928;-49
2022/04/22 04:45:08;;;;;;;;;;;;;;;17.46;61.23;96826.19;2086254;28;19924;-47
2022/04/22 04:46:10;;;;;;;;;;;;;;;17.48;60.97;96826.78;2087291;28;19928;-49
2022/04/22 04:47:10;;;;;;;;;;;;;;;17.51;61.13;96820.13;2085026;28;20031;-48
2022/04/22 04:48:12;;;;;;;;;;;;;;;17.53;61.06;96823.38;2086233;28;19952;-49
2022/04/22 04:49:14;;;;;;;;;;;;;;;17.55;60.87;96826.63;2087169;28;19928;-48
2022/04/22 04:50:14;;;;;;;;;;;;;;;17.55;60.95;96824.78;2083641;28;19932;-49
2022/04/22 04:51:16;;;;;;;;;;;;;;;17.58;60.80;96828.84;2088183;28;19928;-50
2022/04/22 04:52:16;;;;;;;;;;;;;;;17.62;60.83;96825.41;2086777;28;20426;-50
2022/04/22 04:53:19;;;;;;;;;;;;;;;17.66;60.69;96828.41;2089838;28;19928;-47
2022/04/22 04:54:20;;;;;;;;;;;;;;;17.68;60.49;96823.63;2085309;28;19924;-48
2022/04/22 04:55:21;;;;;;;;;;;;;;;17.70;60.57;96828.78;2089105;28;20416;-50
2022/04/22 04:56:22;;;;;;;;;;;;;;;17.73;60.44;96825.59;2087167;28;20392;-48
2022/04/22 04:57:25;;;;;;;;;;;;;;;17.77;60.29;96837.47;2083742;28;20225;-47
2022/04/22 04:58:27;;;;;;;;;;;;;;;17.82;60.35;96840.28;2086964;28;19925;-49
2022/04/22 04:59:27;;;;;;;;;;;;;;;17.86;60.12;96836.06;2084735;28;19927;-47
2022/04/22 05:00:29;;;;;;;;;;;;;;;17.90;60.14;96837.19;2087966;28;19920;-49
2022/04/22 05:01:29;;;;;;;;;;;;;;;17.92;60.17;96835.09;2088737;28;20881;-48
2022/04/22 05:02:31;;;;;;;;;;;;;;;17.96;60.03;96838.09;2085362;28;19929;-50
2022/04/22 05:03:32;;;;;;;;;;;;;;;17.98;60.04;96836.00;2089354;28;20018;-47
2022/04/22 05:04:33;;;;;;;;;;;;;;;18.01;59.88;96838.19;2087922;28;20497;-48
2022/04/22 05:05:34;;;;;;;;;;;;;;;18.04;60.04;96843.88;2086953;28;19932;-48
2022/04/22 05:06:35;;;;;;;;;;;;;;;18.05;59.91;96834.78;2089008;28;20387;-48
2022/04/22 05:07:46;;;;;;;;;;;;;;;18.06;59.79;96839.06;2085454;28;19935;-50
2022/04/22 05:08:47;;;;;;;;;;;;;;;18.08;59.81;96833.47;2085934;28;19924;-51
2022/04/22 05:09:48;;;;;;;;;;;;;;;18.05;59.91;96839.31;2080909;28;19924;-49
2022/04/22 05:10:50;;;;;;;;;;;;;;;18.04;60.53;96835.00;2082930;28;20283;-51
2022/04/22 05:11:50;;;;;;;;;;;;;;;18.05;60.44;96845.50;2083881;28;19924;-48
2022/04/22 05:12:53;;;;;;;;;;;;;;;18.06;60.52;96841.75;2087210;28;20359;-50
2022/04/22 05:13:55;;;;;;;;;;;;;;;18.11;60.68;96838.34;2088602;28;19931;-49
2022/04/22 05:14:57;;;;;;;;;;;;;;;18.16;60.60;96842.97;2086513;28;19951;-48
2022/04/22 05:15:58;;;;;;;;;;;;;;;18.16;60.87;96841.09;2088965;28;19939;-49
2022/04/22 05:16:59;;;;;;;;;;;;;;;18.19;60.77;96842.47;2084464;28;20019;-47
2022/04/22 05:18:02;;;;;;;;;;;;;;;18.20;60.97;96844.13;2083310;28;19928;-49
2022/04/22 05:19:02;;;;;;;;;;;;;;;18.21;61.31;96838.50;2085716;28;20589;-47
2022/04/22 05:20:04;;;;;;;;;;;;;;;18.22;61.32;96840.13;2086017;28;19924;-48
2022/04/22 05:21:06;;;;;;;;;;;;;;;18.24;61.20;96842.56;2088364;28;19924;-52
2022/04/22 05:22:06;;;;;;;;;;;;;;;18.27;61.51;96847.44;2086898;28;19932;-49
2022/04/22 05:23:08;;;;;;;;;;;;;;;18.28;61.71;96849.09;2087102;28;19928;-50
2022/04/22 05:24:08;;;;;;;;;;;;;;;18.30;61.90;96845.09;2076338;28;19925;-49
2022/04/22 05:25:11;;;;;;;;;;;;;;;18.33;61.84;96843.81;2081523;28;19925;-47
2022/04/22 05:26:12;;;;;;;;;;;;;;;18.34;61.87;96848.09;2082800;28;20009;-51
2022/04/22 05:27:13;;;;;;;;;;;;;;;18.35;62.04;96849.72;2078770;28;20407;-49
2022/04/22 05:28:16;;;;;;;;;;;;;;;18.39;62.08;96856.22;2086696;28;19928;-53
2022/04/22 05:33:11;;;;;;;;;;;;;;;18.47;62.53;96852.31;2086849;28;19920;-46
2022/04/22 05:34:12;;;;;;;;;;;;;;;18.48;62.50;96851.25;2083334;28;20031;-53
2022/04/22 05:35:13;;;;;;;;;;;;;;;18.48;62.89;96846.69;2085388;28;20884;-50
2022/04/22 05:36:15;;;;;;;;;;;;;;;18.49;63.02;96848.31;2085611;28;19928;-49
2022/04/22 05:37:16;;;;;;;;;;;;;;;18.51;63.29;96851.56;2085312;28;19928;-50
2022/04/22 05:38:18;;;;;;;;;;;;;;;18.54;63.14;96851.06;2083488;28;19932;-47
2022/04/22 05:39:18;;;;;;;;;;;;;;;18.54;63.48;96851.06;2083564;28;19920;-55
2022/04/22 05:40:22;;;;;;;;;;;;;;;18.55;63.55;96854.56;2081249;28;20243;-52
2022/04/22 05:41:22;;;;;;;;;;;;;;;18.58;63.61;96853.28;2085300;28;19924;-47
2022/04/22 05:42:24;;;;;;;;;;;;;;;18.60;63.29;96856.53;2082385;28;20402;-49
2022/04/22 05:43:28;;;;;;;;;;;;;;;18.59;63.69;96858.41;2080478;28;19924;-51
2022/04/22 05:44:29;;;;;;;;;;;;;;;18.57;63.37;96855.16;2080699;28;19983;-54
2022/04/22 05:45:30;;;;;;;;;;;;;;;18.59;63.72;96857.59;2083398;28;19928;-51
2022/04/22 05:46:31;;;;;;;;;;;;;;;18.62;64.22;96854.41;2080329;28;19921;-53
2022/04/22 05:47:33;;;;;;;;;;;;;;;18.64;64.01;96857.69;2080065;28;19924;-53
2022/04/22 05:48:34;;;;;;;;;;;;;;;18.63;63.87;96856.03;2081693;28;19975;-54
2022/04/22 05:49:35;;;;;;;;;;;;;;;18.66;64.43;96853.66;2082008;28;19932;-54